sensor_id;sensor_type;location;lat;lon;timestamp;P1;durP1;ratioP1;P2;durP2;ratioP2
60935;SDS011;46804;51.786;19.520;2024-01-06T00:01:02;13.50;;;4.53;;
60935;SDS011;46804;51.786;19.520;2024-01-06T00:05:16;8.63;;;4.97;;
60935;SDS011;46804;51.786;19.520;2024-01-06T00:09:16;8.48;;;4.82;;
60935;SDS011;46804;51.786;19.520;2024-01-06T00:13:17;6.25;;;4.03;;
60935;SDS011;46804;51.786;19.520;2024-01-06T00:17:18;7.95;;;4.20;;
60935;SDS011;46804;51.786;19.520;2024-01-06T00:21:18;5.00;;;3.40;;
60935;SDS011;46804;51.786;19.520;2024-01-06T00:25:19;9.43;;;4.35;;
60935;SDS011;46804;51.786;19.520;2024-01-06T00:29:20;9.48;;;4.78;;
60935;SDS011;46804;51.786;19.520;2024-01-06T00:33:21;10.13;;;5.68;;
60935;SDS011;46804;51.786;19.520;2024-01-06T00:37:21;9.48;;;5.03;;
60935;SDS011;46804;51.786;19.520;2024-01-06T00:41:22;9.07;;;5.18;;
60935;SDS011;46804;51.786;19.520;2024-01-06T00:45:23;6.93;;;3.83;;
60935;SDS011;46804;51.786;19.520;2024-01-06T00:49:24;6.07;;;3.83;;
60935;SDS011;46804;51.786;19.520;2024-01-06T00:53:24;14.20;;;5.85;;
60935;SDS011;46804;51.786;19.520;2024-01-06T00:57:25;9.55;;;4.10;;
60935;SDS011;46804;51.786;19.520;2024-01-06T01:01:26;10.65;;;5.45;;
60935;SDS011;46804;51.786;19.520;2024-01-06T01:05:27;10.00;;;5.03;;
60935;SDS011;46804;51.786;19.520;2024-01-06T01:09:28;9.73;;;5.55;;
60935;SDS011;46804;51.786;19.520;2024-01-06T01:13:29;11.63;;;5.88;;
60935;SDS011;46804;51.786;19.520;2024-01-06T01:17:30;13.55;;;5.78;;
60935;SDS011;46804;51.786;19.520;2024-01-06T01:21:30;8.82;;;5.43;;
60935;SDS011;46804;51.786;19.520;2024-01-06T01:25:31;12.20;;;7.50;;
60935;SDS011;46804;51.786;19.520;2024-01-06T01:29:32;6.90;;;5.07;;
60935;SDS011;46804;51.786;19.520;2024-01-06T01:33:33;13.52;;;7.82;;
60935;SDS011;46804;51.786;19.520;2024-01-06T01:37:34;14.25;;;7.03;;
60935;SDS011;46804;51.786;19.520;2024-01-06T01:41:34;9.05;;;5.43;;
60935;SDS011;46804;51.786;19.520;2024-01-06T01:45:35;12.70;;;7.25;;
60935;SDS011;46804;51.786;19.520;2024-01-06T01:49:36;16.35;;;6.57;;
60935;SDS011;46804;51.786;19.520;2024-01-06T01:53:38;15.23;;;7.93;;
60935;SDS011;46804;51.786;19.520;2024-01-06T01:57:39;15.45;;;7.63;;
60935;SDS011;46804;51.786;19.520;2024-01-06T02:01:40;11.65;;;6.95;;
60935;SDS011;46804;51.786;19.520;2024-01-06T02:05:41;15.45;;;7.57;;
60935;SDS011;46804;51.786;19.520;2024-01-06T02:09:42;20.88;;;9.90;;
60935;SDS011;46804;51.786;19.520;2024-01-06T02:13:43;14.57;;;7.82;;
60935;SDS011;46804;51.786;19.520;2024-01-06T02:17:44;12.90;;;6.90;;
60935;SDS011;46804;51.786;19.520;2024-01-06T02:21:48;18.70;;;9.75;;
60935;SDS011;46804;51.786;19.520;2024-01-06T02:25:51;10.20;;;7.10;;
60935;SDS011;46804;51.786;19.520;2024-01-06T02:29:52;17.13;;;7.85;;
60935;SDS011;46804;51.786;19.520;2024-01-06T02:33:53;17.55;;;8.60;;
60935;SDS011;46804;51.786;19.520;2024-01-06T02:37:54;17.10;;;8.45;;
60935;SDS011;46804;51.786;19.520;2024-01-06T02:41:55;12.65;;;6.65;;
60935;SDS011;46804;51.786;19.520;2024-01-06T02:45:55;12.88;;;6.38;;
60935;SDS011;46804;51.786;19.520;2024-01-06T02:49:56;10.55;;;6.25;;
60935;SDS011;46804;51.786;19.520;2024-01-06T02:53:57;15.48;;;6.75;;
60935;SDS011;46804;51.786;19.520;2024-01-06T02:57:58;20.13;;;7.20;;
60935;SDS011;46804;51.786;19.520;2024-01-06T03:01:58;11.77;;;6.82;;
60935;SDS011;46804;51.786;19.520;2024-01-06T03:05:59;8.57;;;5.43;;
60935;SDS011;46804;51.786;19.520;2024-01-06T03:10:00;16.10;;;8.30;;
60935;SDS011;46804;51.786;19.520;2024-01-06T03:14:01;12.15;;;7.10;;
60935;SDS011;46804;51.786;19.520;2024-01-06T03:18:03;9.13;;;6.57;;
60935;SDS011;46804;51.786;19.520;2024-01-06T03:22:04;9.80;;;6.82;;
60935;SDS011;46804;51.786;19.520;2024-01-06T03:26:05;14.10;;;6.05;;
60935;SDS011;46804;51.786;19.520;2024-01-06T03:30:07;15.23;;;7.68;;
60935;SDS011;46804;51.786;19.520;2024-01-06T03:34:08;11.98;;;6.65;;
60935;SDS011;46804;51.786;19.520;2024-01-06T03:38:09;14.07;;;7.63;;
60935;SDS011;46804;51.786;19.520;2024-01-06T03:42:10;14.13;;;7.65;;
60935;SDS011;46804;51.786;19.520;2024-01-06T03:46:10;11.50;;;6.10;;
60935;SDS011;46804;51.786;19.520;2024-01-06T03:50:11;15.07;;;7.80;;
60935;SDS011;46804;51.786;19.520;2024-01-06T03:54:12;13.60;;;7.28;;
60935;SDS011;46804;51.786;19.520;2024-01-06T03:58:13;12.77;;;7.03;;
60935;SDS011;46804;51.786;19.520;2024-01-06T04:02:14;20.73;;;9.57;;
60935;SDS011;46804;51.786;19.520;2024-01-06T04:06:14;15.88;;;7.57;;
60935;SDS011;46804;51.786;19.520;2024-01-06T04:10:15;18.63;;;9.03;;
60935;SDS011;46804;51.786;19.520;2024-01-06T04:14:15;17.00;;;9.25;;
60935;SDS011;46804;51.786;19.520;2024-01-06T04:18:16;17.73;;;10.73;;
60935;SDS011;46804;51.786;19.520;2024-01-06T04:22:17;12.60;;;6.95;;
60935;SDS011;46804;51.786;19.520;2024-01-06T04:26:18;15.15;;;7.00;;
60935;SDS011;46804;51.786;19.520;2024-01-06T04:30:18;15.20;;;8.18;;
60935;SDS011;46804;51.786;19.520;2024-01-06T04:34:21;14.27;;;7.03;;
60935;SDS011;46804;51.786;19.520;2024-01-06T04:38:21;19.75;;;10.93;;
60935;SDS011;46804;51.786;19.520;2024-01-06T04:42:22;20.50;;;9.35;;
60935;SDS011;46804;51.786;19.520;2024-01-06T04:46:24;14.93;;;8.57;;
60935;SDS011;46804;51.786;19.520;2024-01-06T04:50:24;12.50;;;7.80;;
60935;SDS011;46804;51.786;19.520;2024-01-06T04:54:25;14.57;;;6.07;;
60935;SDS011;46804;51.786;19.520;2024-01-06T04:58:26;13.77;;;6.68;;
60935;SDS011;46804;51.786;19.520;2024-01-06T05:02:27;20.95;;;9.07;;
60935;SDS011;46804;51.786;19.520;2024-01-06T05:06:27;10.90;;;6.45;;
60935;SDS011;46804;51.786;19.520;2024-01-06T05:10:28;11.52;;;5.68;;
60935;SDS011;46804;51.786;19.520;2024-01-06T05:14:29;10.65;;;7.05;;
60935;SDS011;46804;51.786;19.520;2024-01-06T05:18:30;11.90;;;7.00;;
60935;SDS011;46804;51.786;19.520;2024-01-06T05:22:31;15.02;;;8.95;;
60935;SDS011;46804;51.786;19.520;2024-01-06T05:26:31;13.57;;;7.80;;
60935;SDS011;46804;51.786;19.520;2024-01-06T05:30:32;29.95;;;9.90;;
60935;SDS011;46804;51.786;19.520;2024-01-06T05:34:33;16.08;;;9.30;;
60935;SDS011;46804;51.786;19.520;2024-01-06T05:38:34;21.85;;;9.50;;
60935;SDS011;46804;51.786;19.520;2024-01-06T05:42:36;19.55;;;8.52;;
60935;SDS011;46804;51.786;19.520;2024-01-06T05:46:37;12.70;;;7.50;;
60935;SDS011;46804;51.786;19.520;2024-01-06T05:50:38;19.38;;;7.70;;
60935;SDS011;46804;51.786;19.520;2024-01-06T05:54:42;16.55;;;7.85;;
60935;SDS011;46804;51.786;19.520;2024-01-06T05:58:43;12.52;;;6.93;;
60935;SDS011;46804;51.786;19.520;2024-01-06T06:02:44;18.85;;;10.85;;
60935;SDS011;46804;51.786;19.520;2024-01-06T06:06:44;15.85;;;8.68;;
60935;SDS011;46804;51.786;19.520;2024-01-06T06:10:45;19.42;;;9.27;;
60935;SDS011;46804;51.786;19.520;2024-01-06T06:15:02;19.27;;;8.38;;
60935;SDS011;46804;51.786;19.520;2024-01-06T06:19:04;14.85;;;8.07;;
60935;SDS011;46804;51.786;19.520;2024-01-06T06:23:05;17.35;;;9.18;;
60935;SDS011;46804;51.786;19.520;2024-01-06T06:27:06;9.98;;;6.03;;
60935;SDS011;46804;51.786;19.520;2024-01-06T06:31:07;19.63;;;10.18;;
60935;SDS011;46804;51.786;19.520;2024-01-06T06:35:08;14.40;;;8.10;;
60935;SDS011;46804;51.786;19.520;2024-01-06T06:39:08;12.25;;;5.90;;
60935;SDS011;46804;51.786;19.520;2024-01-06T06:43:09;11.77;;;7.07;;
60935;SDS011;46804;51.786;19.520;2024-01-06T06:47:10;15.40;;;7.85;;
60935;SDS011;46804;51.786;19.520;2024-01-06T06:51:11;13.73;;;6.93;;
60935;SDS011;46804;51.786;19.520;2024-01-06T06:55:11;14.90;;;8.82;;
60935;SDS011;46804;51.786;19.520;2024-01-06T06:59:12;13.85;;;6.82;;
60935;SDS011;46804;51.786;19.520;2024-01-06T07:03:13;9.80;;;6.25;;
60935;SDS011;46804;51.786;19.520;2024-01-06T07:07:14;19.65;;;9.52;;
60935;SDS011;46804;51.786;19.520;2024-01-06T07:11:15;23.83;;;9.85;;
60935;SDS011;46804;51.786;19.520;2024-01-06T07:15:19;13.88;;;7.80;;
60935;SDS011;46804;51.786;19.520;2024-01-06T07:19:19;20.52;;;12.05;;
60935;SDS011;46804;51.786;19.520;2024-01-06T07:23:20;13.75;;;8.40;;
60935;SDS011;46804;51.786;19.520;2024-01-06T07:27:20;15.02;;;8.80;;
60935;SDS011;46804;51.786;19.520;2024-01-06T07:31:21;23.58;;;11.98;;
60935;SDS011;46804;51.786;19.520;2024-01-06T07:35:22;22.90;;;13.15;;
60935;SDS011;46804;51.786;19.520;2024-01-06T07:39:23;13.45;;;7.85;;
60935;SDS011;46804;51.786;19.520;2024-01-06T07:43:24;16.92;;;9.73;;
60935;SDS011;46804;51.786;19.520;2024-01-06T07:47:25;14.32;;;6.95;;
60935;SDS011;46804;51.786;19.520;2024-01-06T07:51:26;17.20;;;9.65;;
60935;SDS011;46804;51.786;19.520;2024-01-06T07:55:26;12.50;;;8.18;;
60935;SDS011;46804;51.786;19.520;2024-01-06T07:59:29;11.57;;;7.80;;
60935;SDS011;46804;51.786;19.520;2024-01-06T08:03:29;12.65;;;7.32;;
60935;SDS011;46804;51.786;19.520;2024-01-06T08:07:31;14.60;;;7.57;;
60935;SDS011;46804;51.786;19.520;2024-01-06T08:11:32;22.17;;;9.57;;
60935;SDS011;46804;51.786;19.520;2024-01-06T08:15:32;14.35;;;6.50;;
60935;SDS011;46804;51.786;19.520;2024-01-06T08:19:33;11.27;;;6.18;;
60935;SDS011;46804;51.786;19.520;2024-01-06T08:23:36;6.90;;;4.20;;
60935;SDS011;46804;51.786;19.520;2024-01-06T08:27:36;6.50;;;4.10;;
60935;SDS011;46804;51.786;19.520;2024-01-06T08:31:37;10.55;;;7.07;;
60935;SDS011;46804;51.786;19.520;2024-01-06T08:35:38;15.77;;;9.63;;
60935;SDS011;46804;51.786;19.520;2024-01-06T08:39:40;14.18;;;7.57;;
60935;SDS011;46804;51.786;19.520;2024-01-06T08:43:41;15.82;;;8.48;;
60935;SDS011;46804;51.786;19.520;2024-01-06T08:47:42;20.67;;;8.93;;
60935;SDS011;46804;51.786;19.520;2024-01-06T08:51:43;19.35;;;8.70;;
60935;SDS011;46804;51.786;19.520;2024-01-06T08:55:43;12.63;;;6.35;;
60935;SDS011;46804;51.786;19.520;2024-01-06T08:59:44;10.00;;;6.35;;
60935;SDS011;46804;51.786;19.520;2024-01-06T09:03:45;13.48;;;6.78;;
60935;SDS011;46804;51.786;19.520;2024-01-06T09:07:46;11.75;;;7.68;;
60935;SDS011;46804;51.786;19.520;2024-01-06T09:11:50;12.70;;;5.70;;
60935;SDS011;46804;51.786;19.520;2024-01-06T09:15:51;14.32;;;7.93;;
60935;SDS011;46804;51.786;19.520;2024-01-06T09:19:52;9.88;;;7.18;;
60935;SDS011;46804;51.786;19.520;2024-01-06T09:23:54;11.25;;;7.50;;
60935;SDS011;46804;51.786;19.520;2024-01-06T09:27:55;12.70;;;7.80;;
60935;SDS011;46804;51.786;19.520;2024-01-06T09:31:56;12.18;;;8.23;;
60935;SDS011;46804;51.786;19.520;2024-01-06T09:35:56;14.32;;;8.48;;
60935;SDS011;46804;51.786;19.520;2024-01-06T09:39:58;17.38;;;7.22;;
60935;SDS011;46804;51.786;19.520;2024-01-06T09:43:59;11.73;;;6.22;;
60935;SDS011;46804;51.786;19.520;2024-01-06T09:48:00;20.65;;;7.30;;
60935;SDS011;46804;51.786;19.520;2024-01-06T09:52:13;6.88;;;4.57;;
60935;SDS011;46804;51.786;19.520;2024-01-06T09:56:16;8.73;;;5.63;;
60935;SDS011;46804;51.786;19.520;2024-01-06T10:00:18;7.15;;;4.88;;
60935;SDS011;46804;51.786;19.520;2024-01-06T10:04:20;10.80;;;6.47;;
60935;SDS011;46804;51.786;19.520;2024-01-06T10:08:21;16.13;;;8.65;;
60935;SDS011;46804;51.786;19.520;2024-01-06T10:12:26;14.05;;;6.30;;
60935;SDS011;46804;51.786;19.520;2024-01-06T10:16:28;13.20;;;7.07;;
60935;SDS011;46804;51.786;19.520;2024-01-06T10:20:29;10.50;;;5.80;;
60935;SDS011;46804;51.786;19.520;2024-01-06T10:24:30;15.93;;;7.32;;
60935;SDS011;46804;51.786;19.520;2024-01-06T10:28:32;12.25;;;6.80;;
60935;SDS011;46804;51.786;19.520;2024-01-06T10:32:33;11.60;;;6.80;;
60935;SDS011;46804;51.786;19.520;2024-01-06T10:36:35;14.52;;;7.80;;
60935;SDS011;46804;51.786;19.520;2024-01-06T10:40:36;23.65;;;10.65;;
60935;SDS011;46804;51.786;19.520;2024-01-06T10:44:37;16.02;;;8.98;;
60935;SDS011;46804;51.786;19.520;2024-01-06T10:48:40;20.23;;;9.25;;
60935;SDS011;46804;51.786;19.520;2024-01-06T10:52:44;11.75;;;7.43;;
60935;SDS011;46804;51.786;19.520;2024-01-06T10:56:46;15.32;;;7.82;;
60935;SDS011;46804;51.786;19.520;2024-01-06T11:00:49;12.52;;;7.78;;
60935;SDS011;46804;51.786;19.520;2024-01-06T11:04:50;12.15;;;6.65;;
60935;SDS011;46804;51.786;19.520;2024-01-06T11:08:53;13.60;;;7.55;;
60935;SDS011;46804;51.786;19.520;2024-01-06T11:13:09;14.02;;;6.30;;
60935;SDS011;46804;51.786;19.520;2024-01-06T11:17:12;11.57;;;7.33;;
60935;SDS011;46804;51.786;19.520;2024-01-06T11:21:17;13.82;;;8.52;;
60935;SDS011;46804;51.786;19.520;2024-01-06T11:25:20;11.38;;;6.50;;
60935;SDS011;46804;51.786;19.520;2024-01-06T11:29:21;12.53;;;8.57;;
60935;SDS011;46804;51.786;19.520;2024-01-06T11:33:22;17.30;;;8.52;;
60935;SDS011;46804;51.786;19.520;2024-01-06T11:37:34;12.18;;;6.22;;
60935;SDS011;46804;51.786;19.520;2024-01-06T11:41:48;10.35;;;6.07;;
60935;SDS011;46804;51.786;19.520;2024-01-06T11:45:50;13.32;;;7.85;;
60935;SDS011;46804;51.786;19.520;2024-01-06T11:49:54;14.63;;;7.05;;
60935;SDS011;46804;51.786;19.520;2024-01-06T11:53:56;16.52;;;8.68;;
60935;SDS011;46804;51.786;19.520;2024-01-06T11:57:57;16.85;;;8.50;;
60935;SDS011;46804;51.786;19.520;2024-01-06T12:02:02;21.77;;;11.35;;
60935;SDS011;46804;51.786;19.520;2024-01-06T12:06:03;12.98;;;7.32;;
60935;SDS011;46804;51.786;19.520;2024-01-06T12:10:06;18.77;;;9.88;;
60935;SDS011;46804;51.786;19.520;2024-01-06T12:14:08;23.48;;;11.15;;
60935;SDS011;46804;51.786;19.520;2024-01-06T12:18:09;13.85;;;9.02;;
60935;SDS011;46804;51.786;19.520;2024-01-06T12:22:10;23.20;;;11.75;;
60935;SDS011;46804;51.786;19.520;2024-01-06T12:26:16;17.80;;;9.63;;
60935;SDS011;46804;51.786;19.520;2024-01-06T12:30:18;16.92;;;10.02;;
60935;SDS011;46804;51.786;19.520;2024-01-06T12:34:20;20.60;;;11.30;;
60935;SDS011;46804;51.786;19.520;2024-01-06T12:38:22;20.30;;;11.77;;
60935;SDS011;46804;51.786;19.520;2024-01-06T12:42:24;23.10;;;11.25;;
60935;SDS011;46804;51.786;19.520;2024-01-06T12:46:25;17.83;;;11.05;;
60935;SDS011;46804;51.786;19.520;2024-01-06T12:50:25;17.45;;;10.38;;
60935;SDS011;46804;51.786;19.520;2024-01-06T12:54:26;21.60;;;9.32;;
60935;SDS011;46804;51.786;19.520;2024-01-06T12:58:27;24.95;;;10.88;;
60935;SDS011;46804;51.786;19.520;2024-01-06T13:02:28;18.75;;;11.13;;
60935;SDS011;46804;51.786;19.520;2024-01-06T13:06:29;21.95;;;11.48;;
60935;SDS011;46804;51.786;19.520;2024-01-06T13:10:30;21.25;;;11.10;;
60935;SDS011;46804;51.786;19.520;2024-01-06T13:14:31;15.73;;;8.65;;
60935;SDS011;46804;51.786;19.520;2024-01-06T13:18:32;16.60;;;8.32;;
60935;SDS011;46804;51.786;19.520;2024-01-06T13:22:33;20.80;;;10.25;;
60935;SDS011;46804;51.786;19.520;2024-01-06T13:26:34;18.10;;;10.95;;
60935;SDS011;46804;51.786;19.520;2024-01-06T13:30:34;15.52;;;8.65;;
60935;SDS011;46804;51.786;19.520;2024-01-06T13:34:35;11.90;;;7.10;;
60935;SDS011;46804;51.786;19.520;2024-01-06T13:38:36;13.32;;;8.35;;
60935;SDS011;46804;51.786;19.520;2024-01-06T13:42:37;17.40;;;10.65;;
60935;SDS011;46804;51.786;19.520;2024-01-06T13:46:38;21.08;;;8.98;;
60935;SDS011;46804;51.786;19.520;2024-01-06T13:50:40;20.08;;;10.65;;
60935;SDS011;46804;51.786;19.520;2024-01-06T13:54:41;14.82;;;9.32;;
60935;SDS011;46804;51.786;19.520;2024-01-06T13:58:42;11.80;;;7.32;;
60935;SDS011;46804;51.786;19.520;2024-01-06T14:02:43;18.50;;;9.48;;
60935;SDS011;46804;51.786;19.520;2024-01-06T14:06:43;16.60;;;8.32;;
60935;SDS011;46804;51.786;19.520;2024-01-06T14:10:44;20.88;;;9.00;;
60935;SDS011;46804;51.786;19.520;2024-01-06T14:14:45;21.20;;;11.18;;
60935;SDS011;46804;51.786;19.520;2024-01-06T14:18:46;26.77;;;11.00;;
60935;SDS011;46804;51.786;19.520;2024-01-06T14:22:47;14.73;;;8.30;;
60935;SDS011;46804;51.786;19.520;2024-01-06T14:26:50;14.52;;;7.93;;
60935;SDS011;46804;51.786;19.520;2024-01-06T14:30:51;25.92;;;11.02;;
60935;SDS011;46804;51.786;19.520;2024-01-06T14:34:52;20.77;;;11.00;;
60935;SDS011;46804;51.786;19.520;2024-01-06T14:38:52;16.60;;;7.15;;
60935;SDS011;46804;51.786;19.520;2024-01-06T14:42:56;20.95;;;9.27;;
60935;SDS011;46804;51.786;19.520;2024-01-06T14:46:58;18.55;;;9.10;;
60935;SDS011;46804;51.786;19.520;2024-01-06T14:50:58;19.27;;;10.45;;
60935;SDS011;46804;51.786;19.520;2024-01-06T14:54:59;19.50;;;10.57;;
60935;SDS011;46804;51.786;19.520;2024-01-06T14:59:00;13.07;;;8.73;;
60935;SDS011;46804;51.786;19.520;2024-01-06T15:03:01;20.60;;;8.50;;
60935;SDS011;46804;51.786;19.520;2024-01-06T15:07:02;19.90;;;11.88;;
60935;SDS011;46804;51.786;19.520;2024-01-06T15:11:03;16.98;;;8.75;;
60935;SDS011;46804;51.786;19.520;2024-01-06T15:15:04;19.45;;;10.32;;
60935;SDS011;46804;51.786;19.520;2024-01-06T15:19:06;11.43;;;7.80;;
60935;SDS011;46804;51.786;19.520;2024-01-06T15:23:08;18.65;;;8.52;;
60935;SDS011;46804;51.786;19.520;2024-01-06T15:27:09;14.18;;;8.27;;
60935;SDS011;46804;51.786;19.520;2024-01-06T15:31:09;19.55;;;12.68;;
60935;SDS011;46804;51.786;19.520;2024-01-06T15:35:10;14.50;;;9.23;;
60935;SDS011;46804;51.786;19.520;2024-01-06T15:39:10;22.83;;;12.43;;
60935;SDS011;46804;51.786;19.520;2024-01-06T15:43:11;17.60;;;9.30;;
60935;SDS011;46804;51.786;19.520;2024-01-06T15:47:13;15.32;;;8.75;;
60935;SDS011;46804;51.786;19.520;2024-01-06T15:51:13;12.23;;;7.57;;
60935;SDS011;46804;51.786;19.520;2024-01-06T15:55:14;21.23;;;9.25;;
60935;SDS011;46804;51.786;19.520;2024-01-06T15:59:16;15.68;;;8.20;;
60935;SDS011;46804;51.786;19.520;2024-01-06T16:03:17;13.77;;;8.02;;
60935;SDS011;46804;51.786;19.520;2024-01-06T16:07:18;9.10;;;6.35;;
60935;SDS011;46804;51.786;19.520;2024-01-06T16:11:18;15.63;;;7.70;;
60935;SDS011;46804;51.786;19.520;2024-01-06T16:15:19;13.15;;;7.80;;
60935;SDS011;46804;51.786;19.520;2024-01-06T16:19:20;14.18;;;8.10;;
60935;SDS011;46804;51.786;19.520;2024-01-06T16:23:21;15.38;;;7.47;;
60935;SDS011;46804;51.786;19.520;2024-01-06T16:27:24;15.57;;;8.73;;
60935;SDS011;46804;51.786;19.520;2024-01-06T16:31:24;12.18;;;5.78;;
60935;SDS011;46804;51.786;19.520;2024-01-06T16:35:25;14.25;;;8.05;;
60935;SDS011;46804;51.786;19.520;2024-01-06T16:39:26;11.48;;;6.43;;
60935;SDS011;46804;51.786;19.520;2024-01-06T16:43:30;19.00;;;7.63;;
60935;SDS011;46804;51.786;19.520;2024-01-06T16:47:33;8.88;;;5.38;;
60935;SDS011;46804;51.786;19.520;2024-01-06T16:51:37;10.75;;;5.70;;
60935;SDS011;46804;51.786;19.520;2024-01-06T16:55:38;13.57;;;7.55;;
60935;SDS011;46804;51.786;19.520;2024-01-06T16:59:39;10.30;;;6.82;;
60935;SDS011;46804;51.786;19.520;2024-01-06T17:03:42;9.38;;;6.20;;
60935;SDS011;46804;51.786;19.520;2024-01-06T17:07:43;12.13;;;6.85;;
60935;SDS011;46804;51.786;19.520;2024-01-06T17:11:47;14.30;;;6.72;;
60935;SDS011;46804;51.786;19.520;2024-01-06T17:15:48;15.32;;;7.15;;
60935;SDS011;46804;51.786;19.520;2024-01-06T17:19:48;16.77;;;8.00;;
60935;SDS011;46804;51.786;19.520;2024-01-06T17:23:49;12.20;;;6.93;;
60935;SDS011;46804;51.786;19.520;2024-01-06T17:27:53;19.77;;;10.95;;
60935;SDS011;46804;51.786;19.520;2024-01-06T17:31:54;19.08;;;6.53;;
60935;SDS011;46804;51.786;19.520;2024-01-06T17:35:55;11.82;;;5.13;;
60935;SDS011;46804;51.786;19.520;2024-01-06T17:39:56;7.80;;;3.53;;
60935;SDS011;46804;51.786;19.520;2024-01-06T17:43:57;15.63;;;7.72;;
60935;SDS011;46804;51.786;19.520;2024-01-06T17:47:58;8.35;;;5.32;;
60935;SDS011;46804;51.786;19.520;2024-01-06T17:51:59;11.18;;;6.28;;
60935;SDS011;46804;51.786;19.520;2024-01-06T17:55:59;5.68;;;3.08;;
60935;SDS011;46804;51.786;19.520;2024-01-06T18:00:01;10.10;;;4.70;;
60935;SDS011;46804;51.786;19.520;2024-01-06T18:04:01;11.23;;;6.38;;
60935;SDS011;46804;51.786;19.520;2024-01-06T18:08:03;11.48;;;6.40;;
60935;SDS011;46804;51.786;19.520;2024-01-06T18:12:04;14.60;;;6.80;;
60935;SDS011;46804;51.786;19.520;2024-01-06T18:16:05;11.80;;;6.20;;
60935;SDS011;46804;51.786;19.520;2024-01-06T18:20:06;8.77;;;5.80;;
60935;SDS011;46804;51.786;19.520;2024-01-06T18:24:08;8.57;;;5.65;;
60935;SDS011;46804;51.786;19.520;2024-01-06T18:28:09;10.63;;;4.60;;
60935;SDS011;46804;51.786;19.520;2024-01-06T18:32:11;11.43;;;5.88;;
60935;SDS011;46804;51.786;19.520;2024-01-06T18:36:11;6.05;;;3.22;;
60935;SDS011;46804;51.786;19.520;2024-01-06T18:40:12;8.38;;;5.47;;
60935;SDS011;46804;51.786;19.520;2024-01-06T18:44:13;9.32;;;4.43;;
60935;SDS011;46804;51.786;19.520;2024-01-06T18:48:14;9.10;;;5.43;;
60935;SDS011;46804;51.786;19.520;2024-01-06T18:52:15;9.93;;;4.93;;
60935;SDS011;46804;51.786;19.520;2024-01-06T18:56:15;10.93;;;4.25;;
60935;SDS011;46804;51.786;19.520;2024-01-06T19:00:16;7.57;;;3.20;;
60935;SDS011;46804;51.786;19.520;2024-01-06T19:04:19;6.35;;;3.63;;
60935;SDS011;46804;51.786;19.520;2024-01-06T19:08:20;7.70;;;5.07;;
60935;SDS011;46804;51.786;19.520;2024-01-06T19:12:21;3.97;;;2.35;;
60935;SDS011;46804;51.786;19.520;2024-01-06T19:16:21;5.78;;;3.28;;
60935;SDS011;46804;51.786;19.520;2024-01-06T19:20:22;10.05;;;4.47;;
60935;SDS011;46804;51.786;19.520;2024-01-06T19:24:24;7.35;;;3.50;;
60935;SDS011;46804;51.786;19.520;2024-01-06T19:28:24;7.07;;;3.85;;
60935;SDS011;46804;51.786;19.520;2024-01-06T19:32:25;5.82;;;4.47;;
60935;SDS011;46804;51.786;19.520;2024-01-06T19:36:26;7.38;;;4.20;;
60935;SDS011;46804;51.786;19.520;2024-01-06T19:40:27;16.95;;;3.28;;
60935;SDS011;46804;51.786;19.520;2024-01-06T19:44:28;7.35;;;3.47;;
60935;SDS011;46804;51.786;19.520;2024-01-06T19:48:29;6.47;;;3.60;;
60935;SDS011;46804;51.786;19.520;2024-01-06T19:52:32;4.45;;;3.17;;
60935;SDS011;46804;51.786;19.520;2024-01-06T19:56:32;3.15;;;2.58;;
60935;SDS011;46804;51.786;19.520;2024-01-06T20:00:33;5.57;;;3.28;;
60935;SDS011;46804;51.786;19.520;2024-01-06T20:04:33;5.63;;;3.50;;
60935;SDS011;46804;51.786;19.520;2024-01-06T20:08:34;9.82;;;3.65;;
60935;SDS011;46804;51.786;19.520;2024-01-06T20:12:35;13.18;;;5.30;;
60935;SDS011;46804;51.786;19.520;2024-01-06T20:16:36;8.95;;;4.45;;
60935;SDS011;46804;51.786;19.520;2024-01-06T20:20:37;7.50;;;3.60;;
60935;SDS011;46804;51.786;19.520;2024-01-06T20:24:38;8.82;;;5.07;;
60935;SDS011;46804;51.786;19.520;2024-01-06T20:28:39;4.93;;;2.75;;
60935;SDS011;46804;51.786;19.520;2024-01-06T20:32:40;13.07;;;5.03;;
60935;SDS011;46804;51.786;19.520;2024-01-06T20:36:41;9.50;;;5.03;;
60935;SDS011;46804;51.786;19.520;2024-01-06T20:40:42;9.30;;;5.07;;
60935;SDS011;46804;51.786;19.520;2024-01-06T20:44:43;8.55;;;5.13;;
60935;SDS011;46804;51.786;19.520;2024-01-06T20:48:44;9.85;;;4.13;;
60935;SDS011;46804;51.786;19.520;2024-01-06T20:52:46;13.95;;;6.03;;
60935;SDS011;46804;51.786;19.520;2024-01-06T20:56:47;5.75;;;3.47;;
60935;SDS011;46804;51.786;19.520;2024-01-06T21:00:49;15.65;;;5.97;;
60935;SDS011;46804;51.786;19.520;2024-01-06T21:04:50;12.93;;;4.38;;
60935;SDS011;46804;51.786;19.520;2024-01-06T21:08:51;12.75;;;4.68;;
60935;SDS011;46804;51.786;19.520;2024-01-06T21:12:52;6.53;;;2.97;;
60935;SDS011;46804;51.786;19.520;2024-01-06T21:16:53;7.80;;;4.28;;
60935;SDS011;46804;51.786;19.520;2024-01-06T21:20:55;5.57;;;3.13;;
60935;SDS011;46804;51.786;19.520;2024-01-06T21:24:56;12.23;;;6.07;;
60935;SDS011;46804;51.786;19.520;2024-01-06T21:28:57;8.63;;;3.85;;
60935;SDS011;46804;51.786;19.520;2024-01-06T21:32:58;10.00;;;4.00;;
60935;SDS011;46804;51.786;19.520;2024-01-06T21:37:02;12.32;;;3.72;;
60935;SDS011;46804;51.786;19.520;2024-01-06T21:41:03;4.68;;;3.60;;
60935;SDS011;46804;51.786;19.520;2024-01-06T21:45:04;9.63;;;4.35;;
60935;SDS011;46804;51.786;19.520;2024-01-06T21:49:06;9.02;;;3.45;;
60935;SDS011;46804;51.786;19.520;2024-01-06T21:53:06;5.22;;;2.95;;
60935;SDS011;46804;51.786;19.520;2024-01-06T21:57:07;6.68;;;4.22;;
60935;SDS011;46804;51.786;19.520;2024-01-06T22:01:08;5.97;;;4.03;;
60935;SDS011;46804;51.786;19.520;2024-01-06T22:05:10;7.80;;;4.27;;
60935;SDS011;46804;51.786;19.520;2024-01-06T22:09:12;7.80;;;5.15;;
60935;SDS011;46804;51.786;19.520;2024-01-06T22:13:13;7.50;;;4.40;;
60935;SDS011;46804;51.786;19.520;2024-01-06T22:17:15;14.18;;;5.05;;
60935;SDS011;46804;51.786;19.520;2024-01-06T22:21:16;9.65;;;5.20;;
60935;SDS011;46804;51.786;19.520;2024-01-06T22:25:18;7.57;;;4.50;;
60935;SDS011;46804;51.786;19.520;2024-01-06T22:29:19;5.57;;;3.40;;
60935;SDS011;46804;51.786;19.520;2024-01-06T22:33:20;6.80;;;3.03;;
60935;SDS011;46804;51.786;19.520;2024-01-06T22:37:20;7.70;;;4.45;;
60935;SDS011;46804;51.786;19.520;2024-01-06T22:41:21;6.28;;;3.95;;
60935;SDS011;46804;51.786;19.520;2024-01-06T22:45:23;9.15;;;5.07;;
60935;SDS011;46804;51.786;19.520;2024-01-06T22:49:25;8.50;;;4.43;;
60935;SDS011;46804;51.786;19.520;2024-01-06T22:53:25;6.18;;;4.15;;
60935;SDS011;46804;51.786;19.520;2024-01-06T22:57:26;9.73;;;5.00;;
60935;SDS011;46804;51.786;19.520;2024-01-06T23:01:27;12.40;;;5.13;;
60935;SDS011;46804;51.786;19.520;2024-01-06T23:05:29;6.28;;;3.47;;
60935;SDS011;46804;51.786;19.520;2024-01-06T23:09:29;7.75;;;4.55;;
60935;SDS011;46804;51.786;19.520;2024-01-06T23:13:30;11.98;;;5.63;;
60935;SDS011;46804;51.786;19.520;2024-01-06T23:17:31;14.50;;;4.55;;
60935;SDS011;46804;51.786;19.520;2024-01-06T23:21:32;11.70;;;5.63;;
60935;SDS011;46804;51.786;19.520;2024-01-06T23:25:33;9.25;;;5.03;;
60935;SDS011;46804;51.786;19.520;2024-01-06T23:29:34;10.38;;;5.65;;
60935;SDS011;46804;51.786;19.520;2024-01-06T23:33:34;8.27;;;4.57;;